createdAt,value
2019-01-19T00:01:22.717Z,32.45
2019-01-19T00:04:39.073Z,38.70
2019-01-19T00:07:47.829Z,36.73
2019-01-19T00:11:01.426Z,32.50
2019-01-19T00:13:54.146Z,33.58
2019-01-19T00:17:00.905Z,32.75
2019-01-19T00:20:13.027Z,32.28
2019-01-19T00:23:21.492Z,31.50
2019-01-19T00:26:18.436Z,31.40
2019-01-19T00:29:22.161Z,31.42
2019-01-19T00:32:24.784Z,31.17
2019-01-19T00:35:18.216Z,31.25
2019-01-19T00:38:02.256Z,29.60
2019-01-19T00:41:27.650Z,30.88
2019-01-19T00:44:30.149Z,30.55
2019-01-19T00:47:43.503Z,31.83
2019-01-19T00:50:36.916Z,29.80
2019-01-19T00:53:38.300Z,29.37
2019-01-19T00:56:48.112Z,29.77
2019-01-19T00:59:30.446Z,29.30
2019-01-19T01:05:14.770Z,28.77
2019-01-19T01:08:11.538Z,28.77
2019-01-19T01:11:11.307Z,28.17
2019-01-19T01:14:30.581Z,28.30
2019-01-19T01:17:27.897Z,27.07
2019-01-19T01:20:26.771Z,27.87
2019-01-19T01:23:05.328Z,26.95
2019-01-19T01:26:30.799Z,26.77
2019-01-19T01:29:24.610Z,27.48
2019-01-19T01:32:20.534Z,26.85
2019-01-19T01:35:33.087Z,26.65
2019-01-19T01:38:21.277Z,26.97
2019-01-19T01:41:39.708Z,26.87
2019-01-19T01:44:31.268Z,26.05
2019-01-19T01:47:36.488Z,27.43
2019-01-19T01:50:20.463Z,27.67
2019-01-19T01:53:22.551Z,26.95
2019-01-19T01:55:56.117Z,27.63
2019-01-19T01:59:04.416Z,28.45
2019-01-19T02:01:59.079Z,27.27
2019-01-19T02:05:05.362Z,28.05
2019-01-19T02:08:30.428Z,27.65
2019-01-19T02:11:31.571Z,26.87
2019-01-19T02:14:47.869Z,26.33
2019-01-19T02:17:39.987Z,25.62
2019-01-19T02:20:37.774Z,27.73
2019-01-19T02:23:45.066Z,27.32
2019-01-19T02:26:47.270Z,26.68
2019-01-19T02:29:49.075Z,26.95
2019-01-19T02:33:11.534Z,29.10
2019-01-19T02:36:32.868Z,28.30
2019-01-19T02:39:21.849Z,27.90
2019-01-19T02:42:17.178Z,27.02
2019-01-19T02:45:04.159Z,27.40
2019-01-19T02:48:03.066Z,27.70
2019-01-19T02:51:19.168Z,28.70
2019-01-19T02:54:23.316Z,28.90
2019-01-19T02:57:30.779Z,26.77
2019-01-19T03:00:33.763Z,25.37
2019-01-19T03:03:35.345Z,24.80
2019-01-19T03:06:54.526Z,24.63
2019-01-19T03:10:06.221Z,25.75
2019-01-19T03:13:01.224Z,23.32
2019-01-19T03:16:01.613Z,23.55
2019-01-19T03:18:51.594Z,23.12
2019-01-19T03:22:01.985Z,22.65
2019-01-19T03:25:13.977Z,24.35
2019-01-19T03:28:09.907Z,25.68
2019-01-19T03:31:19.305Z,24.43
2019-01-19T03:34:26.857Z,24.80
2019-01-19T03:37:19.670Z,22.73
2019-01-19T03:40:23.421Z,23.57
2019-01-19T03:43:17.487Z,20.23
2019-01-19T03:46:17.654Z,22.20
2019-01-19T03:49:30.508Z,21.80
2019-01-19T03:52:27.254Z,20.85
2019-01-19T03:55:26.441Z,20.68
2019-01-19T03:58:39.952Z,21.30
2019-01-19T04:01:30.675Z,20.12
2019-01-19T04:05:02.115Z,20.50
2019-01-19T04:07:54.899Z,20.88
2019-01-19T04:10:46.833Z,20.97
2019-01-19T04:13:52.748Z,20.68
2019-01-19T04:17:02.925Z,20.23
2019-01-19T04:20:08.610Z,20.37
2019-01-19T04:23:00.346Z,20.97
2019-01-19T04:25:45.963Z,19.50
2019-01-19T04:28:17.619Z,23.07
2019-01-19T04:30:46.707Z,24.50
2019-01-19T04:33:15.812Z,20.80
2019-01-19T04:35:44.894Z,20.97
2019-01-19T04:38:13.977Z,20.50
2019-01-19T04:40:43.054Z,22.00
2019-01-19T04:43:12.132Z,24.90
2019-01-19T04:45:41.202Z,36.03
2019-01-19T04:48:10.274Z,35.88
2019-01-19T04:50:39.325Z,32.38
2019-01-19T04:53:08.594Z,29.42
2019-01-19T04:55:37.646Z,29.72
2019-01-19T04:58:06.900Z,27.10
2019-01-19T05:00:36.038Z,28.40
2019-01-19T05:03:05.459Z,24.63
2019-01-19T05:05:34.619Z,25.97
2019-01-19T05:08:03.726Z,22.70
2019-01-19T05:10:32.859Z,23.87
2019-01-19T05:13:02.020Z,22.95
2019-01-19T05:15:31.082Z,21.77
2019-01-19T05:18:00.554Z,21.45
2019-01-19T05:20:29.602Z,21.33
2019-01-19T05:22:58.713Z,20.60
2019-01-19T05:25:27.783Z,21.55
2019-01-19T05:27:56.948Z,21.62
2019-01-19T05:30:26.071Z,22.00
2019-01-19T05:32:55.136Z,21.48
2019-01-19T05:35:24.260Z,21.37
2019-01-19T05:37:53.353Z,21.55
2019-01-19T05:40:22.498Z,21.47
2019-01-19T05:42:51.585Z,21.62
2019-01-19T05:45:20.686Z,21.97
2019-01-19T05:47:49.739Z,21.20
2019-01-19T05:50:23.156Z,21.10
2019-01-19T05:52:52.215Z,21.70
2019-01-19T05:55:21.325Z,21.55
2019-01-19T05:57:50.389Z,20.95
2019-01-19T06:00:23.148Z,20.73
2019-01-19T06:05:20.437Z,20.27
2019-01-19T06:07:49.489Z,22.07
2019-01-19T06:10:18.688Z,21.67
2019-01-19T06:12:47.751Z,20.92
2019-01-19T06:15:17.033Z,21.63
2019-01-19T06:17:46.112Z,20.00
2019-01-19T06:20:15.916Z,22.40
2019-01-19T06:22:44.999Z,21.82
2019-01-19T06:25:15.089Z,22.43
2019-01-19T06:27:44.171Z,22.30
2019-01-19T06:30:19.547Z,22.87
2019-01-19T06:32:48.640Z,24.12
2019-01-19T06:35:18.845Z,23.57
2019-01-19T06:37:48.079Z,21.93
2019-01-19T06:40:18.659Z,24.20
2019-01-19T06:42:47.794Z,21.93
2019-01-19T06:45:22.518Z,22.63
2019-01-19T06:47:51.588Z,23.50
2019-01-19T06:50:20.769Z,22.53
2019-01-19T06:52:49.965Z,23.55
2019-01-19T06:55:22.084Z,25.97
2019-01-19T06:57:51.227Z,26.85
2019-01-19T07:00:20.430Z,26.60
2019-01-19T07:02:49.657Z,27.00
2019-01-19T07:05:18.755Z,25.87
2019-01-19T07:07:47.871Z,25.20
2019-01-19T07:10:19.751Z,28.80
2019-01-19T07:12:48.898Z,25.82
2019-01-19T07:15:18.106Z,24.47
2019-01-19T07:17:47.242Z,23.42
2019-01-19T07:20:21.948Z,23.00
2019-01-19T07:22:51.114Z,24.95
2019-01-19T07:25:20.216Z,24.07
2019-01-19T07:27:49.317Z,23.22
2019-01-19T07:30:18.400Z,23.90
2019-01-19T07:32:47.613Z,23.25
2019-01-19T07:35:35.173Z,22.57
2019-01-19T07:38:04.364Z,21.93
2019-01-19T07:40:33.492Z,19.73
2019-01-19T07:43:07.589Z,19.82
2019-01-19T07:45:36.792Z,20.97
2019-01-19T07:48:06.954Z,21.40
2019-01-19T07:50:37.842Z,20.65
2019-01-19T07:53:07.223Z,19.87
2019-01-19T07:55:36.436Z,20.02
2019-01-19T07:58:05.547Z,18.85
2019-01-19T08:00:34.696Z,18.57
2019-01-19T08:03:03.885Z,17.15
2019-01-19T08:05:33.001Z,17.50
2019-01-19T08:08:02.230Z,18.50
2019-01-19T08:10:55.175Z,17.55
2019-01-19T08:13:39.562Z,15.63
2019-01-19T08:16:00.959Z,18.57
2019-01-19T08:18:30.120Z,14.75
2019-01-19T08:21:02.108Z,14.15
2019-01-19T08:23:31.288Z,13.40
2019-01-19T08:26:00.485Z,12.43
2019-01-19T08:28:38.144Z,12.70
2019-01-19T08:31:13.780Z,12.88
2019-01-19T08:33:43.011Z,13.08
2019-01-19T08:36:14.102Z,12.10
2019-01-19T08:38:43.269Z,13.28
2019-01-19T08:41:12.511Z,12.85
2019-01-19T08:43:56.300Z,13.35
2019-01-19T08:46:32.431Z,13.50
2019-01-19T08:49:01.574Z,12.60
2019-01-19T08:51:31.054Z,13.15
2019-01-19T08:54:00.106Z,12.43
2019-01-19T08:56:29.308Z,12.78
2019-01-19T08:58:59.306Z,12.73
2019-01-19T09:01:28.410Z,12.85
2019-01-19T09:03:57.605Z,12.53
2019-01-19T09:06:26.909Z,11.78
2019-01-19T09:08:56.130Z,12.35
2019-01-19T09:11:25.329Z,11.48
2019-01-19T09:13:56.034Z,11.88
2019-01-19T09:16:25.200Z,12.63
2019-01-19T09:18:54.562Z,14.13
2019-01-19T09:21:23.751Z,14.43
2019-01-19T09:24:03.712Z,14.45
2019-01-19T09:26:34.821Z,14.87
2019-01-19T09:29:04.042Z,14.78
2019-01-19T09:31:36.028Z,14.98
2019-01-19T09:34:05.439Z,10.90
2019-01-19T09:36:36.202Z,12.78
2019-01-19T09:39:09.532Z,11.63
2019-01-19T09:41:39.897Z,10.98
2019-01-19T09:44:09.094Z,10.85
2019-01-19T09:46:39.700Z,10.18
2019-01-19T09:49:24.992Z,11.22
2019-01-19T09:51:51.638Z,10.75
2019-01-19T09:54:22.069Z,10.00
2019-01-19T09:56:51.350Z,9.85
2019-01-19T09:59:21.987Z,10.75
2019-01-19T10:01:51.214Z,20.92
2019-01-19T10:04:22.331Z,12.28
2019-01-19T10:06:55.783Z,11.15
2019-01-19T10:09:26.586Z,10.60
2019-01-19T10:12:00.570Z,11.15
2019-01-19T10:14:26.887Z,9.63
2019-01-19T10:16:56.187Z,9.75
2019-01-19T10:19:25.340Z,10.08
2019-01-19T10:21:54.452Z,10.53
2019-01-19T10:24:23.569Z,9.93
2019-01-19T10:26:52.672Z,11.20
2019-01-19T10:29:22.202Z,10.45
2019-01-19T10:31:51.366Z,10.10
2019-01-19T10:34:20.470Z,9.78
2019-01-19T10:36:49.618Z,10.78
2019-01-19T10:39:18.714Z,11.48
2019-01-19T10:41:47.868Z,12.80
2019-01-19T10:44:17.125Z,11.95
2019-01-19T10:46:46.257Z,12.40
2019-01-19T10:49:15.442Z,12.13
2019-01-19T10:51:44.633Z,11.80
2019-01-19T10:54:13.748Z,11.97
2019-01-19T10:56:42.878Z,17.90
2019-01-19T10:59:12.007Z,12.82
2019-01-19T11:01:41.134Z,11.55
2019-01-19T11:04:11.892Z,11.60
2019-01-19T11:06:40.982Z,11.35
2019-01-19T11:09:10.055Z,11.30
2019-01-19T11:11:39.284Z,10.82
2019-01-19T11:14:08.347Z,10.48
2019-01-19T11:16:37.642Z,10.95
2019-01-19T11:19:06.963Z,10.30
2019-01-19T11:21:36.098Z,9.98
2019-01-19T11:24:05.228Z,9.90
2019-01-19T11:26:34.355Z,11.00
2019-01-19T11:29:03.502Z,10.28
2019-01-19T11:31:32.632Z,10.75
2019-01-19T11:34:02.935Z,10.28
2019-01-19T11:36:32.207Z,10.45
2019-01-19T11:39:01.321Z,9.68
2019-01-19T11:41:30.433Z,10.78
2019-01-19T11:43:59.559Z,10.32
2019-01-19T11:46:28.647Z,9.55
2019-01-19T11:48:57.782Z,10.05
2019-01-19T11:51:26.896Z,9.75
2019-01-19T11:53:56.037Z,8.83
2019-01-19T11:56:25.129Z,7.90
2019-01-19T11:58:54.307Z,8.13
2019-01-19T12:01:23.433Z,4.63
2019-01-19T12:03:52.594Z,4.80
2019-01-19T12:06:21.850Z,5.70
2019-01-19T12:08:50.980Z,3.85
2019-01-19T12:11:20.071Z,3.70
2019-01-19T12:13:49.231Z,4.03
2019-01-19T12:16:18.460Z,3.33
2019-01-19T12:18:47.561Z,4.60
2019-01-19T12:21:16.696Z,4.12
2019-01-19T12:23:45.844Z,6.47
2019-01-19T12:26:14.956Z,5.47
2019-01-19T12:28:44.045Z,4.90
2019-01-19T12:31:13.225Z,5.72
2019-01-19T12:33:42.437Z,6.10
2019-01-19T12:36:11.618Z,3.37
2019-01-19T12:38:40.812Z,3.15
2019-01-19T12:41:09.921Z,3.75
2019-01-19T12:43:39.061Z,4.42
2019-01-19T12:46:10.262Z,4.05
2019-01-19T12:48:39.456Z,5.75
2019-01-19T12:51:11.952Z,4.20
2019-01-19T12:53:41.070Z,3.37
2019-01-19T12:56:10.194Z,3.08
2019-01-19T12:58:39.408Z,2.90
2019-01-19T13:01:08.533Z,3.52
2019-01-19T13:03:38.029Z,3.02
2019-01-19T13:06:24.818Z,4.85
2019-01-19T13:08:53.978Z,3.30
2019-01-19T13:11:55.687Z,3.95
2019-01-19T13:14:25.054Z,2.67
2019-01-19T13:17:23.106Z,3.02
2019-01-19T13:20:12.490Z,7.83
2019-01-19T13:23:16.218Z,5.40
2019-01-19T13:26:29.290Z,3.70
2019-01-19T13:29:43.076Z,2.85
2019-01-19T13:32:41.339Z,2.75
2019-01-19T13:35:57.562Z,3.02
2019-01-19T13:39:10.160Z,2.98
2019-01-19T13:42:09.819Z,2.95
2019-01-19T13:45:11.654Z,3.20
2019-01-19T13:48:23.732Z,3.12
2019-01-19T13:51:28.905Z,3.20
2019-01-19T13:54:39.062Z,5.40
2019-01-19T13:57:29.605Z,6.87
2019-01-19T14:00:43.162Z,7.20
2019-01-19T14:03:49.990Z,5.95
2019-01-19T14:07:08.282Z,19.65
2019-01-19T14:09:56.631Z,7.70
2019-01-19T14:13:01.970Z,8.35
2019-01-19T14:15:46.598Z,5.55
2019-01-19T14:19:11.869Z,6.37
2019-01-19T14:33:24.552Z,8.08
2019-01-19T14:36:23.913Z,9.30
2019-01-19T14:39:37.776Z,9.05
2019-01-19T14:42:58.030Z,9.00
2019-01-19T14:45:56.322Z,8.60
2019-01-19T14:48:57.842Z,9.30
2019-01-19T14:52:07.353Z,9.20
2019-01-19T14:55:17.650Z,8.68
2019-01-19T14:58:26.969Z,8.23
2019-01-19T15:01:01.620Z,9.05
2019-01-19T15:03:57.339Z,8.73
2019-01-19T15:06:58.277Z,10.05
2019-01-19T15:10:01.230Z,8.93
2019-01-19T15:13:09.442Z,8.80
2019-01-19T15:16:19.687Z,8.30
2019-01-19T15:19:12.603Z,8.65
2019-01-19T15:22:24.770Z,10.05
2019-01-19T15:25:33.851Z,10.23
2019-01-19T15:28:43.762Z,10.38
2019-01-19T15:32:00.125Z,9.73
2019-01-19T15:35:01.185Z,9.88
2019-01-19T15:37:48.253Z,7.70
2019-01-19T15:40:54.046Z,8.47
2019-01-19T15:44:01.937Z,7.47
2019-01-19T15:47:18.241Z,8.30
2019-01-19T15:50:31.859Z,7.25
2019-01-19T15:53:38.136Z,8.13
2019-01-19T15:56:38.398Z,8.53
2019-01-19T15:59:29.885Z,9.55
2019-01-19T16:02:28.335Z,9.70
2019-01-19T16:05:39.155Z,9.70
2019-01-19T16:09:10.725Z,9.40
2019-01-19T16:12:17.251Z,10.18
2019-01-19T16:15:33.846Z,11.22
2019-01-19T16:18:43.341Z,11.65
2019-01-19T16:21:43.533Z,10.30
2019-01-19T16:24:41.259Z,11.57
2019-01-19T16:28:05.595Z,9.50
2019-01-19T16:31:11.344Z,20.65
2019-01-19T16:34:08.473Z,10.50
2019-01-19T16:37:09.007Z,11.18
2019-01-19T16:40:08.358Z,10.35
2019-01-19T16:43:10.649Z,10.48
2019-01-19T16:45:58.248Z,12.37
2019-01-19T16:49:04.120Z,18.40
2019-01-19T16:52:15.362Z,11.55
2019-01-19T17:25:15.997Z,13.25
2019-01-19T17:28:28.109Z,12.23
2019-01-19T17:31:56.551Z,13.83
2019-01-19T17:34:58.833Z,11.12
2019-01-19T17:37:53.109Z,14.60
2019-01-19T17:41:12.590Z,14.07
2019-01-19T17:44:12.554Z,18.77
2019-01-19T17:47:14.937Z,16.10
2019-01-19T17:50:06.154Z,13.83
2019-01-19T17:53:01.724Z,25.12
2019-01-19T17:56:07.420Z,24.00
2019-01-19T17:59:00.433Z,14.25
2019-01-19T18:02:09.248Z,19.67
2019-01-19T18:05:03.012Z,19.92
2019-01-19T18:08:13.286Z,17.85
2019-01-19T18:11:39.129Z,12.47
2019-01-19T18:14:44.547Z,11.85
2019-01-19T18:17:39.367Z,11.85
2019-01-19T18:21:01.747Z,12.55
2019-01-19T18:23:59.617Z,12.63
2019-01-19T18:26:55.310Z,12.33
2019-01-19T18:30:05.643Z,13.00
2019-01-19T18:33:18.533Z,13.70
2019-01-19T18:36:40.842Z,14.40
2019-01-19T18:39:42.848Z,13.32
2019-01-19T18:43:08.344Z,14.73
2019-01-19T18:46:24.277Z,19.77
2019-01-19T18:49:42.413Z,17.37
2019-01-19T18:52:56.013Z,25.27
2019-01-19T19:11:29.699Z,18.25
2019-01-19T19:19:16.926Z,19.48
2019-01-19T19:22:24.796Z,22.65
2019-01-19T19:25:51.134Z,21.68
2019-01-19T19:28:51.341Z,16.87
2019-01-19T19:32:09.765Z,23.10
2019-01-19T19:35:24.360Z,22.22
2019-01-19T19:38:35.980Z,25.85
2019-01-19T19:42:04.794Z,23.52
2019-01-19T19:45:14.581Z,25.92
2019-01-19T19:48:27.116Z,25.15
2019-01-19T19:51:29.802Z,21.52
2019-01-19T19:53:59.072Z,22.85
2019-01-19T19:56:26.806Z,26.30
2019-01-19T19:58:56.084Z,37.55
2019-01-19T20:01:25.380Z,21.12
2019-01-19T20:03:54.590Z,20.55
2019-01-19T20:06:24.097Z,21.82
2019-01-19T20:08:53.247Z,18.27
2019-01-19T20:11:23.711Z,17.87
2019-01-19T20:13:52.868Z,17.82
2019-01-19T20:16:22.040Z,18.37
2019-01-19T20:18:53.079Z,17.85
2019-01-19T20:21:22.222Z,15.78
2019-01-19T20:23:51.401Z,18.23
2019-01-19T20:26:20.967Z,17.37
2019-01-19T20:28:50.250Z,16.10
2019-01-19T20:31:19.533Z,15.95
2019-01-19T20:33:48.777Z,18.37
2019-01-19T20:36:18.172Z,16.57
2019-01-19T20:38:47.365Z,17.05
2019-01-19T20:41:16.845Z,15.20
2019-01-19T20:43:46.077Z,15.45
2019-01-19T20:46:16.968Z,23.55
2019-01-19T20:48:46.408Z,16.17
2019-01-19T20:51:15.580Z,16.35
2019-01-19T20:53:50.233Z,16.35
2019-01-19T20:56:19.448Z,23.10
2019-01-19T20:58:48.800Z,14.78
2019-01-19T21:01:18.015Z,16.50
2019-01-19T21:03:47.326Z,17.48
2019-01-19T21:06:16.514Z,16.67
2019-01-19T21:08:45.835Z,15.25
2019-01-19T21:11:15.239Z,17.25
2019-01-19T21:13:48.563Z,27.90
2019-01-19T21:16:17.739Z,18.65
2019-01-19T21:18:48.584Z,17.57
2019-01-19T21:21:17.789Z,17.55
2019-01-19T21:23:49.277Z,18.12
2019-01-19T21:26:18.664Z,18.07
2019-01-19T21:28:51.185Z,32.05
2019-01-19T21:31:20.458Z,37.85
2019-01-19T21:33:49.644Z,18.80
2019-01-19T21:36:18.894Z,18.67
2019-01-19T21:38:48.130Z,17.73
2019-01-19T21:41:25.983Z,19.85
2019-01-19T21:43:54.010Z,16.57
2019-01-19T21:46:21.918Z,16.65
2019-01-19T21:48:51.226Z,15.88
2019-01-19T21:51:21.639Z,15.68
2019-01-19T21:53:50.895Z,15.20
2019-01-19T21:56:20.028Z,16.57
2019-01-19T21:58:49.297Z,16.52
2019-01-19T22:01:18.588Z,16.42
2019-01-19T22:03:47.813Z,17.05
2019-01-19T22:06:17.165Z,18.23
2019-01-19T22:08:46.245Z,18.67
2019-01-19T22:11:15.403Z,16.10
2019-01-19T22:13:47.284Z,16.82
2019-01-19T22:18:44.678Z,15.98
2019-01-19T22:21:13.867Z,16.95
2019-01-19T22:23:43.095Z,16.60
2019-01-19T22:26:14.136Z,16.20
2019-01-19T22:28:43.330Z,16.67
2019-01-19T22:31:13.134Z,16.60
2019-01-19T22:33:42.329Z,19.52
2019-01-19T22:36:11.443Z,18.85
2019-01-19T22:38:40.620Z,17.12
2019-01-19T22:41:09.791Z,16.57
2019-01-19T22:43:41.469Z,16.50
2019-01-19T22:46:10.575Z,16.83
2019-01-19T22:48:39.911Z,17.55
2019-01-19T22:51:11.397Z,18.02
2019-01-19T22:53:40.175Z,17.85
2019-01-19T22:56:09.234Z,18.23
2019-01-19T22:58:38.428Z,17.67
2019-01-19T23:01:34.647Z,18.30
2019-01-19T23:04:04.118Z,18.35
2019-01-19T23:06:33.209Z,18.32
2019-01-19T23:09:02.338Z,18.50
2019-01-19T23:11:33.960Z,17.98
2019-01-19T23:14:02.662Z,19.57
2019-01-19T23:16:31.815Z,21.48
2019-01-19T23:19:00.956Z,21.10
2019-01-19T23:21:30.086Z,21.93
2019-01-19T23:23:59.358Z,22.25
2019-01-19T23:26:28.965Z,21.35
2019-01-19T23:28:58.019Z,21.23
2019-01-19T23:31:27.176Z,21.15
2019-01-19T23:33:56.299Z,21.45
2019-01-19T23:36:25.492Z,20.02
2019-01-19T23:38:54.719Z,19.50
2019-01-19T23:41:23.895Z,17.37
2019-01-19T23:43:54.139Z,18.27
2019-01-19T23:46:23.291Z,18.32
2019-01-19T23:48:52.483Z,18.10
2019-01-19T23:51:22.395Z,19.70
2019-01-19T23:53:51.764Z,31.45
2019-01-19T23:56:20.991Z,32.38
2019-01-19T23:58:50.153Z,31.27
